createdAt,value
2022-12-01T00:02:42.845Z,100.20
2022-12-01T00:05:44.296Z,91.47
2022-12-01T00:08:47.654Z,92.53
2022-12-01T00:14:50.378Z,92.07
2022-12-01T00:17:51.729Z,88.07
2022-12-01T00:20:53.082Z,92.70
2022-12-01T00:23:57.294Z,92.35
2022-12-01T00:26:58.643Z,92.05
2022-12-01T00:29:59.990Z,88.25
2022-12-01T00:33:01.326Z,97.60
2022-12-01T00:36:03.856Z,89.60
2022-12-01T00:39:05.216Z,99.63
2022-12-01T00:42:11.744Z,98.70
2022-12-01T00:45:14.682Z,99.72
2022-12-01T00:48:16.123Z,91.53
2022-12-01T00:51:17.466Z,91.25
2022-12-01T00:54:18.871Z,90.63
2022-12-01T00:57:20.227Z,94.40
2022-12-01T01:00:23.534Z,94.43
2022-12-01T01:03:25.678Z,92.10
2022-12-01T01:06:27.056Z,86.97
2022-12-01T01:09:28.488Z,92.45
2022-12-01T01:12:29.964Z,91.78
2022-12-01T01:15:31.845Z,83.90
2022-12-01T01:18:33.822Z,92.25
2022-12-01T01:21:35.372Z,86.18
2022-12-01T01:24:36.931Z,84.90
2022-12-01T01:27:38.280Z,88.40
2022-12-01T01:30:40.361Z,84.82
2022-12-01T01:33:42.026Z,87.30
2022-12-01T01:36:43.398Z,87.03
2022-12-01T01:39:44.804Z,84.32
2022-12-01T01:42:46.141Z,86.35
2022-12-01T01:45:47.497Z,84.45
2022-12-01T01:49:11.238Z,81.28
2022-12-01T01:52:13.341Z,87.53
2022-12-01T01:55:15.453Z,81.95
2022-12-01T01:58:16.986Z,84.35
2022-12-01T02:01:18.424Z,82.13
2022-12-01T02:04:20.425Z,83.05
2022-12-01T02:07:21.866Z,86.57
2022-12-01T02:11:10.639Z,86.75
2022-12-01T02:14:38.994Z,80.40
2022-12-01T02:18:02.144Z,84.18
2022-12-01T02:21:41.034Z,89.93
2022-12-01T02:25:27.127Z,85.07
2022-12-01T02:28:53.956Z,80.07
2022-12-01T02:31:59.078Z,79.90
2022-12-01T02:35:39.059Z,87.35
2022-12-01T02:38:51.792Z,84.88
2022-12-01T02:42:07.150Z,85.10
2022-12-01T02:45:14.943Z,76.75
2022-12-01T02:48:25.647Z,87.97
2022-12-01T02:51:30.406Z,83.50
2022-12-01T02:54:33.431Z,82.90
2022-12-01T02:57:34.787Z,86.00
2022-12-01T03:00:36.620Z,81.88
2022-12-01T03:03:53.669Z,84.30
2022-12-01T03:07:12.618Z,85.75
2022-12-01T03:10:31.864Z,84.68
2022-12-01T03:13:45.991Z,83.05
2022-12-01T03:16:51.544Z,85.70
2022-12-01T03:19:59.263Z,79.85
2022-12-01T03:23:08.740Z,81.20
2022-12-01T03:26:17.073Z,84.47
2022-12-01T03:29:26.496Z,85.75
2022-12-01T03:32:41.060Z,85.03
2022-12-01T03:35:53.906Z,80.60
2022-12-01T03:39:01.037Z,88.80
2022-12-01T03:42:10.421Z,82.60
2022-12-01T03:45:18.210Z,86.35
2022-12-01T03:48:19.682Z,83.85
2022-12-01T03:51:56.255Z,77.18
2022-12-01T03:55:00.610Z,83.43
2022-12-01T03:58:07.973Z,80.85
2022-12-01T04:01:09.660Z,86.25
2022-12-01T04:04:13.812Z,84.97
2022-12-01T04:07:15.214Z,76.35
2022-12-01T04:10:16.654Z,79.68
2022-12-01T04:13:18.131Z,79.35
2022-12-01T04:16:19.490Z,82.32
2022-12-01T04:19:20.927Z,83.20
2022-12-01T04:22:23.435Z,82.95
2022-12-01T04:25:24.823Z,87.73
2022-12-01T04:28:26.643Z,81.05
2022-12-01T04:31:28.598Z,80.80
2022-12-01T04:34:29.984Z,85.28
2022-12-01T04:37:31.324Z,85.03
2022-12-01T04:40:32.797Z,82.13
2022-12-01T04:43:34.172Z,87.25
2022-12-01T04:46:35.606Z,86.80
2022-12-01T04:49:37.101Z,86.05
2022-12-01T04:52:38.476Z,83.65
2022-12-01T04:55:39.937Z,87.53
2022-12-01T04:58:41.353Z,89.22
2022-12-01T05:01:42.912Z,82.43
2022-12-01T05:04:44.457Z,94.68
2022-12-01T05:07:45.894Z,83.55
2022-12-01T05:10:47.294Z,86.85
2022-12-01T05:13:49.212Z,93.32
2022-12-01T05:16:50.872Z,95.03
2022-12-01T05:19:52.266Z,95.25
2022-12-01T05:23:05.213Z,86.60
2022-12-01T05:26:09.227Z,91.25
2022-12-01T05:29:11.666Z,90.70
2022-12-01T05:32:13.059Z,91.03
2022-12-01T05:35:14.633Z,88.43
2022-12-01T05:38:16.448Z,91.90
2022-12-01T05:41:17.830Z,92.80
2022-12-01T05:44:19.557Z,87.45
2022-12-01T05:47:20.952Z,90.63
2022-12-01T05:50:23.306Z,92.63
2022-12-01T05:53:24.774Z,91.15
2022-12-01T05:56:26.201Z,91.80
2022-12-01T05:59:28.338Z,88.20
2022-12-01T06:02:29.724Z,87.75
2022-12-01T06:05:31.490Z,95.22
2022-12-01T06:08:32.914Z,93.00
2022-12-01T06:11:34.265Z,82.18
2022-12-01T06:14:35.616Z,84.22
2022-12-01T06:17:40.182Z,88.90
2022-12-01T06:20:41.997Z,94.90
2022-12-01T06:23:43.323Z,89.47
2022-12-01T06:26:44.688Z,83.22
2022-12-01T06:29:46.020Z,88.13
2022-12-01T06:32:47.370Z,90.75
2022-12-01T06:35:48.725Z,85.28
2022-12-01T06:38:50.081Z,86.95
2022-12-01T06:41:51.417Z,88.65
2022-12-01T06:44:52.758Z,87.97
2022-12-01T06:47:55.302Z,90.55
2022-12-01T06:51:00.597Z,94.73
2022-12-01T06:54:05.493Z,90.53
2022-12-01T06:57:07.182Z,90.22
2022-12-01T07:00:09.477Z,86.07
2022-12-01T07:03:10.978Z,90.72
2022-12-01T07:06:12.331Z,91.40
2022-12-01T07:09:13.691Z,90.93
2022-12-01T07:12:15.021Z,91.93
2022-12-01T07:15:16.521Z,87.22
2022-12-01T07:18:18.346Z,94.38
2022-12-01T07:21:19.775Z,94.35
2022-12-01T07:24:21.130Z,97.47
2022-12-01T07:27:22.538Z,89.32
2022-12-01T07:30:28.253Z,89.53
2022-12-01T07:33:30.738Z,93.10
2022-12-01T07:36:32.205Z,91.40
2022-12-01T07:39:33.561Z,93.15
2022-12-01T07:42:34.887Z,86.63
2022-12-01T07:45:36.423Z,95.88
2022-12-01T07:48:38.961Z,87.53
2022-12-01T07:51:40.356Z,91.93
2022-12-01T07:54:41.698Z,95.80
2022-12-01T07:57:43.038Z,92.88
2022-12-01T08:00:44.429Z,94.97
2022-12-01T08:03:48.242Z,92.65
2022-12-01T08:06:49.592Z,94.05
2022-12-01T08:09:51.264Z,98.90
2022-12-01T08:12:52.917Z,94.47
2022-12-01T08:15:54.434Z,94.63
2022-12-01T08:18:55.864Z,95.20
2022-12-01T08:21:57.360Z,91.15
2022-12-01T08:24:58.800Z,92.32
2022-12-01T08:28:00.765Z,84.90
2022-12-01T08:31:14.458Z,88.60
2022-12-01T08:34:15.872Z,87.20
2022-12-01T08:37:17.244Z,90.30
2022-12-01T08:40:18.684Z,88.82
2022-12-01T08:43:49.477Z,92.05
2022-12-01T08:46:41.386Z,89.35
2022-12-01T08:49:42.762Z,87.05
2022-12-01T08:52:44.081Z,97.18
2022-12-01T08:55:45.410Z,86.20
2022-12-01T08:58:46.802Z,82.85
2022-12-01T09:01:48.242Z,83.75
2022-12-01T09:04:50.259Z,81.78
2022-12-01T09:07:51.686Z,81.65
2022-12-01T09:10:53.455Z,85.13
2022-12-01T09:13:54.943Z,77.40
2022-12-01T09:16:56.287Z,76.18
2022-12-01T09:19:57.604Z,77.60
2022-12-01T09:22:58.924Z,73.10
2022-12-01T09:26:00.367Z,79.15
2022-12-01T09:29:05.940Z,71.22
2022-12-01T09:32:07.267Z,73.95
2022-12-01T09:35:08.636Z,73.15
2022-12-01T09:38:09.989Z,77.10
2022-12-01T09:41:18.855Z,70.93
2022-12-01T09:44:56.944Z,70.05
2022-12-01T09:48:02.601Z,73.68
2022-12-01T09:51:04.017Z,74.03
2022-12-01T09:54:10.587Z,72.07
2022-12-01T09:57:28.364Z,64.78
2022-12-01T10:00:34.023Z,66.70
2022-12-01T10:03:43.548Z,68.03
2022-12-01T10:07:03.307Z,63.92
2022-12-01T10:10:14.477Z,65.28
2022-12-01T10:13:20.187Z,68.15
2022-12-01T10:16:32.572Z,61.38
2022-12-01T10:19:42.570Z,58.45
2022-12-01T10:22:58.922Z,69.65
2022-12-01T10:26:07.970Z,66.95
2022-12-01T10:29:16.502Z,64.10
2022-12-01T10:32:30.298Z,59.53
2022-12-01T10:35:33.134Z,55.97
2022-12-01T10:38:37.303Z,59.60
2022-12-01T10:41:39.788Z,51.45
2022-12-01T10:44:42.050Z,48.30
2022-12-01T10:48:09.519Z,45.50
2022-12-01T10:51:17.302Z,43.00
2022-12-01T10:54:20.102Z,44.78
2022-12-01T10:57:21.557Z,49.70
2022-12-01T11:00:57.952Z,46.03
2022-12-01T11:03:52.022Z,47.47
2022-12-01T11:06:53.568Z,42.45
2022-12-01T11:10:04.321Z,42.05
2022-12-01T11:13:14.928Z,47.58
2022-12-01T11:16:34.131Z,45.05
2022-12-01T11:19:35.562Z,42.17
2022-12-01T11:22:38.201Z,43.07
2022-12-01T11:25:39.572Z,42.95
2022-12-01T11:29:02.992Z,41.13
2022-12-01T11:32:32.989Z,46.78
2022-12-01T11:35:37.869Z,47.78
2022-12-01T11:38:39.270Z,44.25
2022-12-01T11:41:40.735Z,47.35
2022-12-01T11:44:55.367Z,47.40
2022-12-01T11:48:12.026Z,42.30
2022-12-01T11:51:19.344Z,42.88
2022-12-01T11:54:26.161Z,42.42
2022-12-01T11:57:34.816Z,42.38
2022-12-01T12:00:57.387Z,41.30
2022-12-01T12:04:12.320Z,41.80
2022-12-01T12:07:42.821Z,39.17
2022-12-01T12:10:59.496Z,43.17
2022-12-01T12:14:10.115Z,44.20
2022-12-01T12:17:24.462Z,49.85
2022-12-01T12:20:47.158Z,44.08
2022-12-01T12:24:09.183Z,47.70
2022-12-01T12:27:15.668Z,38.38
2022-12-01T12:30:21.645Z,43.30
2022-12-01T12:34:07.576Z,41.22
2022-12-01T12:37:26.229Z,39.80
2022-12-01T12:40:54.689Z,41.55
2022-12-01T12:43:58.916Z,39.35
2022-12-01T12:47:26.733Z,38.72
2022-12-01T12:50:49.628Z,44.67
2022-12-01T12:54:07.819Z,46.53
2022-12-01T12:57:35.544Z,41.67
2022-12-01T13:00:42.376Z,40.83
2022-12-01T13:03:55.588Z,48.25
2022-12-01T13:07:05.213Z,44.60
2022-12-01T13:10:20.240Z,46.25
2022-12-01T13:13:30.781Z,40.47
2022-12-01T13:16:37.792Z,36.85
2022-12-01T13:19:41.153Z,39.45
2022-12-01T13:25:49.084Z,33.58
2022-12-01T13:28:56.039Z,33.13
2022-12-01T13:31:57.406Z,41.55
2022-12-01T13:35:00.310Z,41.55
2022-12-01T13:38:33.150Z,76.70
2022-12-01T13:41:38.385Z,60.45
2022-12-01T13:44:45.864Z,95.47
2022-12-01T13:47:47.196Z,48.25
2022-12-01T13:50:59.027Z,46.58
2022-12-01T13:54:28.051Z,39.10
2022-12-01T13:57:34.532Z,42.08
2022-12-01T14:00:36.074Z,38.72
2022-12-01T14:03:39.631Z,30.35
2022-12-01T14:06:44.126Z,34.45
2022-12-01T14:09:45.899Z,35.38
2022-12-01T14:12:49.049Z,35.25
2022-12-01T14:15:55.731Z,35.35
2022-12-01T14:18:58.972Z,37.45
2022-12-01T14:22:02.080Z,29.15
2022-12-01T14:25:28.765Z,33.88
2022-12-01T14:29:00.082Z,37.58
2022-12-01T14:32:01.360Z,34.60
2022-12-01T14:35:05.085Z,36.08
2022-12-01T14:38:09.912Z,35.45
2022-12-01T14:41:22.791Z,34.28
2022-12-01T14:44:33.104Z,35.97
2022-12-01T14:47:52.436Z,36.30
2022-12-01T14:51:09.506Z,38.03
2022-12-01T14:54:18.270Z,40.05
2022-12-01T14:57:24.509Z,37.55
2022-12-01T15:00:26.429Z,41.90
2022-12-01T15:03:34.042Z,47.10
2022-12-01T15:06:37.289Z,43.58
2022-12-01T15:09:58.699Z,39.85
2022-12-01T15:13:14.399Z,41.28
2022-12-01T15:16:18.980Z,38.83
2022-12-01T15:19:37.623Z,44.70
2022-12-01T15:22:41.085Z,40.42
2022-12-01T15:25:45.482Z,37.08
2022-12-01T15:28:46.926Z,37.20
2022-12-01T15:31:51.771Z,38.67
2022-12-01T15:34:55.288Z,36.58
2022-12-01T15:41:28.416Z,36.97
2022-12-01T15:44:41.505Z,44.75
2022-12-01T15:47:42.786Z,30.48
2022-12-01T15:50:58.598Z,36.05
2022-12-01T15:54:01.358Z,31.88
2022-12-01T15:57:02.993Z,33.22
2022-12-01T16:00:04.939Z,36.30
2022-12-01T16:03:14.517Z,32.03
2022-12-01T16:06:16.272Z,32.60
2022-12-01T16:09:20.652Z,33.53
2022-12-01T16:12:24.564Z,30.65
2022-12-01T16:15:25.969Z,33.42
2022-12-01T16:18:34.216Z,29.02
2022-12-01T16:21:43.069Z,33.20
2022-12-01T16:24:50.835Z,32.05
2022-12-01T16:27:56.991Z,26.48
2022-12-01T16:30:58.676Z,25.58
2022-12-01T16:34:13.998Z,28.17
2022-12-01T16:40:25.702Z,25.83
2022-12-01T16:43:28.548Z,25.55
2022-12-01T16:46:29.997Z,22.58
2022-12-01T16:49:31.375Z,26.33
2022-12-01T16:52:48.267Z,24.17
2022-12-01T16:55:53.749Z,27.23
2022-12-01T16:58:55.161Z,22.15
2022-12-01T17:01:56.609Z,26.20
2022-12-01T17:04:57.970Z,26.17
2022-12-01T17:07:59.941Z,25.88
2022-12-01T17:11:05.099Z,22.92
2022-12-01T17:14:06.516Z,23.92
2022-12-01T17:17:07.854Z,28.48
2022-12-01T17:20:10.548Z,24.55
2022-12-01T17:23:11.934Z,24.48
2022-12-01T17:26:16.253Z,24.90
2022-12-01T17:29:17.600Z,27.95
2022-12-01T17:32:18.976Z,26.10
2022-12-01T17:35:20.294Z,25.00
2022-12-01T17:38:21.632Z,25.77
2022-12-01T17:41:23.006Z,29.40
2022-12-01T17:44:24.335Z,24.77
2022-12-01T17:47:26.284Z,26.52
2022-12-01T17:50:27.608Z,24.15
2022-12-01T17:53:28.945Z,23.92
2022-12-01T17:56:30.824Z,24.00
2022-12-01T17:59:32.156Z,27.33
2022-12-01T18:02:34.017Z,30.83
2022-12-01T18:05:35.419Z,28.55
2022-12-01T18:08:36.862Z,24.20
2022-12-01T18:11:38.238Z,26.20
2022-12-01T18:14:39.574Z,27.95
2022-12-01T18:17:40.884Z,26.63
2022-12-01T18:20:43.533Z,28.20
2022-12-01T18:23:56.661Z,28.73
2022-12-01T18:26:58.030Z,30.42
2022-12-01T18:29:59.350Z,30.25
2022-12-01T18:33:01.244Z,28.83
2022-12-01T18:36:03.574Z,28.88
2022-12-01T18:39:06.542Z,27.77
2022-12-01T18:42:07.886Z,27.02
2022-12-01T18:45:09.620Z,25.98
2022-12-01T18:48:10.963Z,26.55
2022-12-01T18:51:12.874Z,27.63
2022-12-01T18:54:15.746Z,28.15
2022-12-01T18:57:17.084Z,26.98
2022-12-01T19:00:18.791Z,30.00
2022-12-01T19:03:20.417Z,26.70
2022-12-01T19:06:22.385Z,30.02
2022-12-01T19:09:23.925Z,32.55
2022-12-01T19:12:25.349Z,32.47
2022-12-01T19:15:26.732Z,25.17
2022-12-01T19:18:28.065Z,24.98
2022-12-01T19:21:29.421Z,23.27
2022-12-01T19:24:30.745Z,24.55
2022-12-01T19:27:32.154Z,24.52
2022-12-01T19:30:34.715Z,27.30
2022-12-01T19:33:36.106Z,29.58
2022-12-01T19:36:37.450Z,28.30
2022-12-01T19:39:38.842Z,31.27
2022-12-01T19:42:41.111Z,34.30
2022-12-01T19:45:42.543Z,31.27
2022-12-01T19:48:44.454Z,30.92
2022-12-01T19:51:45.807Z,30.40
2022-12-01T19:54:47.149Z,35.17
2022-12-01T19:57:51.632Z,33.75
2022-12-01T20:00:52.995Z,34.42
2022-12-01T20:03:54.855Z,32.60
2022-12-01T20:06:56.249Z,38.80
2022-12-01T20:09:57.604Z,32.65
2022-12-01T20:12:58.980Z,37.70
2022-12-01T20:16:05.768Z,35.45
2022-12-01T20:19:07.593Z,40.95
2022-12-01T20:22:08.971Z,38.55
2022-12-01T20:25:10.445Z,36.90
2022-12-01T20:28:11.793Z,35.50
2022-12-01T20:31:20.633Z,38.15
2022-12-01T20:34:25.457Z,40.00
2022-12-01T20:37:26.847Z,42.88
2022-12-01T20:40:28.234Z,38.88
2022-12-01T20:43:30.205Z,41.20
2022-12-01T20:46:31.722Z,40.05
2022-12-01T20:49:33.186Z,38.20
2022-12-01T20:52:34.742Z,35.38
2022-12-01T20:55:36.726Z,35.25
2022-12-01T20:58:39.259Z,38.25
2022-12-01T21:01:40.633Z,38.40
2022-12-01T21:04:42.147Z,38.00
2022-12-01T21:07:43.618Z,39.35
2022-12-01T21:10:45.841Z,41.03
2022-12-01T21:13:47.176Z,38.83
2022-12-01T21:16:48.707Z,39.72
2022-12-01T21:19:55.904Z,41.50
2022-12-01T21:23:08.587Z,40.25
2022-12-01T21:26:14.120Z,41.80
2022-12-01T21:29:17.672Z,39.20
2022-12-01T21:32:31.125Z,44.65
2022-12-01T21:35:32.473Z,44.63
2022-12-01T21:38:33.796Z,43.95
2022-12-01T21:41:35.159Z,45.88
2022-12-01T21:44:37.192Z,39.13
2022-12-01T21:47:38.590Z,43.72
2022-12-01T21:50:39.946Z,45.63
2022-12-01T21:53:41.428Z,44.05
2022-12-01T21:56:42.790Z,44.65
2022-12-01T21:59:44.173Z,39.40
